<?xml version="1.0" encoding="UTF-8" standalone="no" ?>
<gpx xmlns="http://www.topografix.com/GPX/1/1" xmlns:xsi="http://www.w3.org/2001/XMLSchema-instance" xsi:schemaLocation="http://www.topografix.com/GPX/1/1 http://www.topografix.com/GPX/1/1/gpx.xsd" version="1.1" creator="VisuGPX - https://www.visugpx.com">
  <metadata>
    <name>Ecrins 2021</name>
  </metadata>
  <wpt lat="44.8396" lon="6.47901">
    <ele>1191.4</ele>
    <name><![CDATA[Vallouise]]></name>
  </wpt>
  <wpt lat="44.83903" lon="6.47524">
    <ele>1196.1</ele>
    <name><![CDATA[Pont des Fontaines]]></name>
  </wpt>
  <wpt lat="44.83931" lon="6.45488">
    <ele>1245.7</ele>
    <name><![CDATA[Pont des Places]]></name>
  </wpt>
  <wpt lat="44.83632" lon="6.44255">
    <ele>1309.8</ele>
    <name><![CDATA[Eboulement]]></name>
  </wpt>
  <wpt lat="44.83869" lon="6.44564">
    <ele>1289.8</ele>
    <name><![CDATA[Les Grésourières]]></name>
  </wpt>
  <wpt lat="44.83597" lon="6.43037">
    <ele>1466.9</ele>
    <name><![CDATA[Béassac]]></name>
  </wpt>
  <wpt lat="44.83117" lon="6.40174">
    <ele>1622.1</ele>
    <name><![CDATA[Entre les Aygues]]></name>
  </wpt>
  <wpt lat="44.83049" lon="6.40124">
    <ele>1609.1</ele>
    <name><![CDATA[Passerelle sur le torrent des Bans]]></name>
  </wpt>
  <wpt lat="44.81358" lon="6.38864">
    <ele>1836.5</ele>
    <name><![CDATA[Panneau d'entrée dans le parc des Ecrins]]></name>
  </wpt>
  <wpt lat="44.80661" lon="6.37616">
    <ele>1939.8</ele>
    <name><![CDATA[Passerelle sur le ruisseau du Ravin du Blanc]]></name>
  </wpt>
  <wpt lat="44.8009" lon="6.36589">
    <ele>2016.2</ele>
    <name><![CDATA[Passerelle sur le ruisseau de Chanteloube]]></name>
  </wpt>
  <wpt lat="44.79287" lon="6.36504">
    <ele>2131</ele>
    <name><![CDATA[1er ressaut]]></name>
  </wpt>
  <wpt lat="44.79042" lon="6.36483">
    <ele>2165</ele>
    <name><![CDATA[2ème ressaut]]></name>
  </wpt>
  <wpt lat="44.78733" lon="6.36223">
    <ele>2279.1</ele>
    <name><![CDATA[Champ Rond]]></name>
  </wpt>
  <wpt lat="44.78227" lon="6.35819">
    <ele>2498.2</ele>
    <name><![CDATA[Torrent de la Saume]]></name>
  </wpt>
  <wpt lat="44.76133" lon="6.34075">
    <ele>2074.9</ele>
    <name><![CDATA[Cabanes de Rougnoux]]></name>
  </wpt>
  <wpt lat="44.7633" lon="6.33688">
    <ele>1969.9</ele>
    <name><![CDATA[Passerelle sur le torrent de Rougnoux]]></name>
  </wpt>
  <wpt lat="44.7672" lon="6.32888">
    <ele>1831.2</ele>
    <name><![CDATA[Bivouac du refuge du Pré de la Chaumette]]></name>
  </wpt>
  <wpt lat="44.7729" lon="6.31142">
    <ele>2512.9</ele>
    <name><![CDATA[Sous le Puy de la Chaumette]]></name>
  </wpt>
  <wpt lat="44.81151" lon="6.29603">
    <ele>1704.7</ele>
    <name><![CDATA[Passerelle sur le torrent de Vallonpierre]]></name>
  </wpt>
  <wpt lat="44.81485" lon="6.29576">
    <ele>1660.5</ele>
    <name><![CDATA[Torrent de Vallonpierre]]></name>
  </wpt>
  <wpt lat="44.82482" lon="6.29325">
    <ele>1569.6</ele>
    <name><![CDATA[Passerelle sur la Séveraisse]]></name>
  </wpt>
  <wpt lat="44.82779" lon="6.29194">
    <ele>1545.2</ele>
    <name><![CDATA[Passerelle sur le Torrent de Pis Baumette]]></name>
  </wpt>
  <wpt lat="44.83173" lon="6.28114">
    <ele>1439</ele>
    <name><![CDATA[Passerelle sur le Torrent du Gioberney]]></name>
  </wpt>
  <wpt lat="44.8266" lon="6.26079">
    <ele>1402.8</ele>
    <name><![CDATA[Rif du Sap]]></name>
  </wpt>
  <wpt lat="44.82438" lon="6.23313">
    <ele>1174.1</ele>
    <name><![CDATA[Pont du Hameau du Bourg]]></name>
  </wpt>
  <wpt lat="44.81982" lon="6.21913">
    <ele>1151.2</ele>
    <name><![CDATA[Passerelle du Casset]]></name>
  </wpt>
  <trk>
    <name><![CDATA[E2 Besse-La Grave]]></name>
    <trkseg>
      <trkpt lat="45.07215" lon="6.17273">
        <ele>1549</ele>
        <time>2020-10-27T09:15:28+01:00</time>
      </trkpt>
      <trkpt lat="45.07206" lon="6.17322">
        <ele>1543</ele>
        <time>2020-10-27T09:15:33+01:00</time>
      </trkpt>
      <trkpt lat="45.07217" lon="6.17443">
        <ele>1535</ele>
        <time>2020-10-27T09:15:38+01:00</time>
      </trkpt>
      <trkpt lat="45.07217" lon="6.17481">
        <ele>1532</ele>
        <time>2020-10-27T09:15:43+01:00</time>
      </trkpt>
      <trkpt lat="45.07256" lon="6.17569">
        <ele>1524</ele>
        <time>2020-10-27T09:15:48+01:00</time>
      </trkpt>
      <trkpt lat="45.07283" lon="6.17588">
        <ele>1528</ele>
        <time>2020-10-27T09:15:53+01:00</time>
      </trkpt>
      <trkpt lat="45.07353" lon="6.17694">
        <ele>1522</ele>
        <time>2020-10-27T09:15:58+01:00</time>
      </trkpt>
      <trkpt lat="45.07391" lon="6.17777">
        <ele>1521</ele>
        <time>2020-10-27T09:16:03+01:00</time>
      </trkpt>
      <trkpt lat="45.07456" lon="6.17852">
        <ele>1526</ele>
        <time>2020-10-27T09:16:08+01:00</time>
      </trkpt>
      <trkpt lat="45.07487" lon="6.1788">
        <ele>1531</ele>
        <time>2020-10-27T09:16:13+01:00</time>
      </trkpt>
      <trkpt lat="45.07542" lon="6.17878">
        <ele>1536</ele>
        <time>2020-10-27T09:16:18+01:00</time>
      </trkpt>
      <trkpt lat="45.0757" lon="6.17913">
        <ele>1541</ele>
        <time>2020-10-27T09:16:23+01:00</time>
      </trkpt>
      <trkpt lat="45.07617" lon="6.17936">
        <ele>1544</ele>
        <time>2020-10-27T09:16:28+01:00</time>
      </trkpt>
      <trkpt lat="45.07664" lon="6.1799">
        <ele>1548</ele>
        <time>2020-10-27T09:16:33+01:00</time>
      </trkpt>
      <trkpt lat="45.07717" lon="6.18028">
        <ele>1552</ele>
        <time>2020-10-27T09:16:38+01:00</time>
      </trkpt>
      <trkpt lat="45.07766" lon="6.18033">
        <ele>1552</ele>
        <time>2020-10-27T09:16:43+01:00</time>
      </trkpt>
      <trkpt lat="45.07825" lon="6.18003">
        <ele>1557</ele>
        <time>2020-10-27T09:16:48+01:00</time>
      </trkpt>
      <trkpt lat="45.07839" lon="6.18007">
        <ele>1560</ele>
        <time>2020-10-27T09:16:53+01:00</time>
      </trkpt>
      <trkpt lat="45.07861" lon="6.18069">
        <ele>1560</ele>
        <time>2020-10-27T09:16:58+01:00</time>
      </trkpt>
      <trkpt lat="45.07887" lon="6.18144">
        <ele>1564</ele>
        <time>2020-10-27T09:17:03+01:00</time>
      </trkpt>
      <trkpt lat="45.07923" lon="6.18198">
        <ele>1572</ele>
        <time>2020-10-27T09:17:08+01:00</time>
      </trkpt>
      <trkpt lat="45.07957" lon="6.18301">
        <ele>1587</ele>
        <time>2020-10-27T09:17:13+01:00</time>
      </trkpt>
      <trkpt lat="45.07951" lon="6.18322">
        <ele>1594</ele>
        <time>2020-10-27T09:17:18+01:00</time>
      </trkpt>
      <trkpt lat="45.07978" lon="6.18352">
        <ele>1591</ele>
        <time>2020-10-27T09:17:23+01:00</time>
      </trkpt>
      <trkpt lat="45.07955" lon="6.1835">
        <ele>1599</ele>
        <time>2020-10-27T09:17:28+01:00</time>
      </trkpt>
      <trkpt lat="45.07952" lon="6.18363">
        <ele>1603</ele>
        <time>2020-10-27T09:17:33+01:00</time>
      </trkpt>
      <trkpt lat="45.0794" lon="6.18352">
        <ele>1605</ele>
        <time>2020-10-27T09:17:38+01:00</time>
      </trkpt>
      <trkpt lat="45.07954" lon="6.18445">
        <ele>1625</ele>
        <time>2020-10-27T09:17:43+01:00</time>
      </trkpt>
      <trkpt lat="45.07969" lon="6.18556">
        <ele>1647</ele>
        <time>2020-10-27T09:17:48+01:00</time>
      </trkpt>
      <trkpt lat="45.07963" lon="6.18674">
        <ele>1673</ele>
        <time>2020-10-27T09:17:53+01:00</time>
      </trkpt>
      <trkpt lat="45.07949" lon="6.18807">
        <ele>1689</ele>
        <time>2020-10-27T09:17:58+01:00</time>
      </trkpt>
      <trkpt lat="45.07943" lon="6.18953">
        <ele>1701</ele>
        <time>2020-10-27T09:18:03+01:00</time>
      </trkpt>
      <trkpt lat="45.07943" lon="6.18981">
        <ele>1703</ele>
        <time>2020-10-27T09:18:08+01:00</time>
      </trkpt>
      <trkpt lat="45.07939" lon="6.19091">
        <ele>1714</ele>
        <time>2020-10-27T09:18:13+01:00</time>
      </trkpt>
      <trkpt lat="45.07902" lon="6.19241">
        <ele>1748</ele>
        <time>2020-10-27T09:18:18+01:00</time>
      </trkpt>
      <trkpt lat="45.07892" lon="6.19511">
        <ele>1783</ele>
        <time>2020-10-27T09:18:23+01:00</time>
      </trkpt>
      <trkpt lat="45.0788" lon="6.19539">
        <ele>1794</ele>
        <time>2020-10-27T09:18:28+01:00</time>
      </trkpt>
      <trkpt lat="45.07892" lon="6.19601">
        <ele>1798</ele>
        <time>2020-10-27T09:18:33+01:00</time>
      </trkpt>
      <trkpt lat="45.07828" lon="6.1958">
        <ele>1836</ele>
        <time>2020-10-27T09:18:38+01:00</time>
      </trkpt>
      <trkpt lat="45.07807" lon="6.19548">
        <ele>1847</ele>
        <time>2020-10-27T09:18:43+01:00</time>
      </trkpt>
      <trkpt lat="45.07802" lon="6.19513">
        <ele>1851</ele>
        <time>2020-10-27T09:18:48+01:00</time>
      </trkpt>
      <trkpt lat="45.07789" lon="6.19513">
        <ele>1860</ele>
        <time>2020-10-27T09:18:53+01:00</time>
      </trkpt>
      <trkpt lat="45.07783" lon="6.19466">
        <ele>1863</ele>
        <time>2020-10-27T09:18:58+01:00</time>
      </trkpt>
      <trkpt lat="45.07763" lon="6.19494">
        <ele>1878</ele>
        <time>2020-10-27T09:19:03+01:00</time>
      </trkpt>
      <trkpt lat="45.07745" lon="6.19466">
        <ele>1890</ele>
        <time>2020-10-27T09:19:08+01:00</time>
      </trkpt>
      <trkpt lat="45.07723" lon="6.19496">
        <ele>1899</ele>
        <time>2020-10-27T09:19:13+01:00</time>
      </trkpt>
      <trkpt lat="45.07658" lon="6.1955">
        <ele>1911</ele>
        <time>2020-10-27T09:19:18+01:00</time>
      </trkpt>
      <trkpt lat="45.07616" lon="6.19588">
        <ele>1926</ele>
        <time>2020-10-27T09:19:23+01:00</time>
      </trkpt>
      <trkpt lat="45.07546" lon="6.19713">
        <ele>1982</ele>
        <time>2020-10-27T09:19:28+01:00</time>
      </trkpt>
      <trkpt lat="45.07575" lon="6.19741">
        <ele>1991</ele>
        <time>2020-10-27T09:19:33+01:00</time>
      </trkpt>
      <trkpt lat="45.0752" lon="6.19764">
        <ele>2002</ele>
        <time>2020-10-27T09:19:38+01:00</time>
      </trkpt>
      <trkpt lat="45.07543" lon="6.19816">
        <ele>2021</ele>
        <time>2020-10-27T09:19:43+01:00</time>
      </trkpt>
      <trkpt lat="45.07545" lon="6.19893">
        <ele>2044</ele>
        <time>2020-10-27T09:19:48+01:00</time>
      </trkpt>
      <trkpt lat="45.07599" lon="6.20007">
        <ele>2072</ele>
        <time>2020-10-27T09:19:53+01:00</time>
      </trkpt>
      <trkpt lat="45.07633" lon="6.20086">
        <ele>2083</ele>
        <time>2020-10-27T09:19:58+01:00</time>
      </trkpt>
      <trkpt lat="45.07507" lon="6.2009">
        <ele>2130</ele>
        <time>2020-10-27T09:20:03+01:00</time>
      </trkpt>
      <trkpt lat="45.07486" lon="6.20103">
        <ele>2138</ele>
        <time>2020-10-27T09:20:08+01:00</time>
      </trkpt>
      <trkpt lat="45.07567" lon="6.20262">
        <ele>2167</ele>
        <time>2020-10-27T09:20:13+01:00</time>
      </trkpt>
      <trkpt lat="45.07463" lon="6.20234">
        <ele>2194</ele>
        <time>2020-10-27T09:20:18+01:00</time>
      </trkpt>
      <trkpt lat="45.0748" lon="6.20254">
        <ele>2199</ele>
        <time>2020-10-27T09:20:23+01:00</time>
      </trkpt>
      <trkpt lat="45.07405" lon="6.20258">
        <ele>2213</ele>
        <time>2020-10-27T09:20:28+01:00</time>
      </trkpt>
      <trkpt lat="45.07339" lon="6.20344">
        <ele>2233</ele>
        <time>2020-10-27T09:20:33+01:00</time>
      </trkpt>
      <trkpt lat="45.07352" lon="6.20487">
        <ele>2250</ele>
        <time>2020-10-27T09:20:38+01:00</time>
      </trkpt>
      <trkpt lat="45.07372" lon="6.20532">
        <ele>2254</ele>
        <time>2020-10-27T09:20:43+01:00</time>
      </trkpt>
      <trkpt lat="45.07163" lon="6.20586">
        <ele>2242</ele>
        <time>2020-10-27T09:20:48+01:00</time>
      </trkpt>
      <trkpt lat="45.07093" lon="6.20648">
        <ele>2233</ele>
        <time>2020-10-27T09:20:53+01:00</time>
      </trkpt>
      <trkpt lat="45.07066" lon="6.20831">
        <ele>2216</ele>
        <time>2020-10-27T09:20:58+01:00</time>
      </trkpt>
      <trkpt lat="45.0701" lon="6.21002">
        <ele>2214</ele>
        <time>2020-10-27T09:21:03+01:00</time>
      </trkpt>
      <trkpt lat="45.06934" lon="6.21129">
        <ele>2209</ele>
        <time>2020-10-27T09:21:08+01:00</time>
      </trkpt>
      <trkpt lat="45.06872" lon="6.21316">
        <ele>2210</ele>
        <time>2020-10-27T09:21:13+01:00</time>
      </trkpt>
      <trkpt lat="45.06717" lon="6.21565">
        <ele>2210</ele>
        <time>2020-10-27T09:21:18+01:00</time>
      </trkpt>
      <trkpt lat="45.06661" lon="6.21659">
        <ele>2209</ele>
        <time>2020-10-27T09:21:23+01:00</time>
      </trkpt>
      <trkpt lat="45.0659" lon="6.21783">
        <ele>2208</ele>
        <time>2020-10-27T09:21:28+01:00</time>
      </trkpt>
      <trkpt lat="45.0657" lon="6.21992">
        <ele>2191</ele>
        <time>2020-10-27T09:21:33+01:00</time>
      </trkpt>
      <trkpt lat="45.06513" lon="6.22125">
        <ele>2203</ele>
        <time>2020-10-27T09:21:38+01:00</time>
      </trkpt>
      <trkpt lat="45.06502" lon="6.22305">
        <ele>2225</ele>
        <time>2020-10-27T09:21:43+01:00</time>
      </trkpt>
      <trkpt lat="45.06467" lon="6.22367">
        <ele>2239</ele>
        <time>2020-10-27T09:21:48+01:00</time>
      </trkpt>
      <trkpt lat="45.06454" lon="6.22479">
        <ele>2250</ele>
        <time>2020-10-27T09:21:53+01:00</time>
      </trkpt>
      <trkpt lat="45.0641" lon="6.22575">
        <ele>2261</ele>
        <time>2020-10-27T09:21:58+01:00</time>
      </trkpt>
      <trkpt lat="45.06382" lon="6.22717">
        <ele>2268</ele>
        <time>2020-10-27T09:22:03+01:00</time>
      </trkpt>
      <trkpt lat="45.06319" lon="6.22824">
        <ele>2274</ele>
        <time>2020-10-27T09:22:08+01:00</time>
      </trkpt>
      <trkpt lat="45.06325" lon="6.23043">
        <ele>2292</ele>
        <time>2020-10-27T09:22:13+01:00</time>
      </trkpt>
      <trkpt lat="45.06287" lon="6.23234">
        <ele>2304</ele>
        <time>2020-10-27T09:22:18+01:00</time>
      </trkpt>
      <trkpt lat="45.06297" lon="6.23365">
        <ele>2307</ele>
        <time>2020-10-27T09:22:23+01:00</time>
      </trkpt>
      <trkpt lat="45.06279" lon="6.23436">
        <ele>2311</ele>
        <time>2020-10-27T09:22:28+01:00</time>
      </trkpt>
      <trkpt lat="45.0629" lon="6.23573">
        <ele>2316</ele>
        <time>2020-10-27T09:22:33+01:00</time>
      </trkpt>
      <trkpt lat="45.06237" lon="6.23693">
        <ele>2333</ele>
        <time>2020-10-27T09:22:38+01:00</time>
      </trkpt>
      <trkpt lat="45.0614" lon="6.23785">
        <ele>2353</ele>
        <time>2020-10-27T09:22:43+01:00</time>
      </trkpt>
      <trkpt lat="45.06023" lon="6.23852">
        <ele>2368</ele>
        <time>2020-10-27T09:22:48+01:00</time>
      </trkpt>
      <trkpt lat="45.0592" lon="6.23873">
        <ele>2353</ele>
        <time>2020-10-27T09:22:53+01:00</time>
      </trkpt>
      <trkpt lat="45.05799" lon="6.23912">
        <ele>2331</ele>
        <time>2020-10-27T09:22:58+01:00</time>
      </trkpt>
      <trkpt lat="45.05755" lon="6.23964">
        <ele>2318</ele>
        <time>2020-10-27T09:23:03+01:00</time>
      </trkpt>
      <trkpt lat="45.05721" lon="6.24094">
        <ele>2302</ele>
        <time>2020-10-27T09:23:08+01:00</time>
      </trkpt>
      <trkpt lat="45.05715" lon="6.24172">
        <ele>2296</ele>
        <time>2020-10-27T09:23:13+01:00</time>
      </trkpt>
      <trkpt lat="45.05709" lon="6.24311">
        <ele>2280</ele>
        <time>2020-10-27T09:23:18+01:00</time>
      </trkpt>
      <trkpt lat="45.05731" lon="6.24494">
        <ele>2262</ele>
        <time>2020-10-27T09:23:23+01:00</time>
      </trkpt>
      <trkpt lat="45.05705" lon="6.24661">
        <ele>2247</ele>
        <time>2020-10-27T09:23:28+01:00</time>
      </trkpt>
      <trkpt lat="45.05705" lon="6.24704">
        <ele>2244</ele>
        <time>2020-10-27T09:23:33+01:00</time>
      </trkpt>
      <trkpt lat="45.05679" lon="6.2488">
        <ele>2228</ele>
        <time>2020-10-27T09:23:38+01:00</time>
      </trkpt>
      <trkpt lat="45.05694" lon="6.24959">
        <ele>2221</ele>
        <time>2020-10-27T09:23:43+01:00</time>
      </trkpt>
      <trkpt lat="45.0569" lon="6.25006">
        <ele>2217</ele>
        <time>2020-10-27T09:23:48+01:00</time>
      </trkpt>
      <trkpt lat="45.0572" lon="6.25169">
        <ele>2204</ele>
        <time>2020-10-27T09:23:53+01:00</time>
      </trkpt>
      <trkpt lat="45.05737" lon="6.25242">
        <ele>2199</ele>
        <time>2020-10-27T09:23:58+01:00</time>
      </trkpt>
      <trkpt lat="45.0569" lon="6.25253">
        <ele>2199</ele>
        <time>2020-10-27T09:24:03+01:00</time>
      </trkpt>
      <trkpt lat="45.05532" lon="6.2538">
        <ele>2205</ele>
        <time>2020-10-27T09:24:08+01:00</time>
      </trkpt>
      <trkpt lat="45.05432" lon="6.25423">
        <ele>2211</ele>
        <time>2020-10-27T09:24:13+01:00</time>
      </trkpt>
      <trkpt lat="45.0533" lon="6.25483">
        <ele>2219</ele>
        <time>2020-10-27T09:24:18+01:00</time>
      </trkpt>
      <trkpt lat="45.05264" lon="6.2556">
        <ele>2225</ele>
        <time>2020-10-27T09:24:23+01:00</time>
      </trkpt>
      <trkpt lat="45.05197" lon="6.25689">
        <ele>2222</ele>
        <time>2020-10-27T09:24:28+01:00</time>
      </trkpt>
      <trkpt lat="45.05182" lon="6.25764">
        <ele>2219</ele>
        <time>2020-10-27T09:24:33+01:00</time>
      </trkpt>
      <trkpt lat="45.05202" lon="6.25899">
        <ele>2209</ele>
        <time>2020-10-27T09:24:38+01:00</time>
      </trkpt>
      <trkpt lat="45.05259" lon="6.26157">
        <ele>2184</ele>
        <time>2020-10-27T09:24:43+01:00</time>
      </trkpt>
      <trkpt lat="45.05255" lon="6.26206">
        <ele>2176</ele>
        <time>2020-10-27T09:24:48+01:00</time>
      </trkpt>
      <trkpt lat="45.05265" lon="6.2633">
        <ele>2168</ele>
        <time>2020-10-27T09:24:53+01:00</time>
      </trkpt>
      <trkpt lat="45.05296" lon="6.2636">
        <ele>2171</ele>
        <time>2020-10-27T09:24:58+01:00</time>
      </trkpt>
      <trkpt lat="45.05332" lon="6.26577">
        <ele>2161</ele>
        <time>2020-10-27T09:25:03+01:00</time>
      </trkpt>
      <trkpt lat="45.05308" lon="6.26717">
        <ele>2149</ele>
        <time>2020-10-27T09:25:08+01:00</time>
      </trkpt>
      <trkpt lat="45.05279" lon="6.26828">
        <ele>2129</ele>
        <time>2020-10-27T09:25:13+01:00</time>
      </trkpt>
      <trkpt lat="45.05285" lon="6.26886">
        <ele>2120</ele>
        <time>2020-10-27T09:25:18+01:00</time>
      </trkpt>
      <trkpt lat="45.05253" lon="6.26953">
        <ele>2113</ele>
        <time>2020-10-27T09:25:23+01:00</time>
      </trkpt>
      <trkpt lat="45.05205" lon="6.27071">
        <ele>2095</ele>
        <time>2020-10-27T09:25:28+01:00</time>
      </trkpt>
      <trkpt lat="45.05176" lon="6.27206">
        <ele>2081</ele>
        <time>2020-10-27T09:25:33+01:00</time>
      </trkpt>
      <trkpt lat="45.05133" lon="6.27309">
        <ele>2071</ele>
        <time>2020-10-27T09:25:38+01:00</time>
      </trkpt>
      <trkpt lat="45.05083" lon="6.27356">
        <ele>2060</ele>
        <time>2020-10-27T09:25:43+01:00</time>
      </trkpt>
      <trkpt lat="45.05089" lon="6.27375">
        <ele>2055</ele>
        <time>2020-10-27T09:25:48+01:00</time>
      </trkpt>
      <trkpt lat="45.05208" lon="6.27377">
        <ele>2032</ele>
        <time>2020-10-27T09:25:53+01:00</time>
      </trkpt>
      <trkpt lat="45.05186" lon="6.27438">
        <ele>2024</ele>
        <time>2020-10-27T09:25:58+01:00</time>
      </trkpt>
      <trkpt lat="45.05236" lon="6.27416">
        <ele>2009</ele>
        <time>2020-10-27T09:26:03+01:00</time>
      </trkpt>
      <trkpt lat="45.05267" lon="6.2738">
        <ele>2001</ele>
        <time>2020-10-27T09:26:08+01:00</time>
      </trkpt>
      <trkpt lat="45.05267" lon="6.27438">
        <ele>1995</ele>
        <time>2020-10-27T09:26:13+01:00</time>
      </trkpt>
      <trkpt lat="45.0528" lon="6.27463">
        <ele>1987</ele>
        <time>2020-10-27T09:26:18+01:00</time>
      </trkpt>
      <trkpt lat="45.05302" lon="6.27431">
        <ele>1979</ele>
        <time>2020-10-27T09:26:23+01:00</time>
      </trkpt>
      <trkpt lat="45.05349" lon="6.27412">
        <ele>1961</ele>
        <time>2020-10-27T09:26:28+01:00</time>
      </trkpt>
      <trkpt lat="45.05355" lon="6.27384">
        <ele>1962</ele>
        <time>2020-10-27T09:26:33+01:00</time>
      </trkpt>
      <trkpt lat="45.0537" lon="6.2742">
        <ele>1950</ele>
        <time>2020-10-27T09:26:38+01:00</time>
      </trkpt>
      <trkpt lat="45.05394" lon="6.2735">
        <ele>1947</ele>
        <time>2020-10-27T09:26:43+01:00</time>
      </trkpt>
      <trkpt lat="45.05447" lon="6.27311">
        <ele>1939</ele>
        <time>2020-10-27T09:26:48+01:00</time>
      </trkpt>
      <trkpt lat="45.05521" lon="6.273">
        <ele>1923</ele>
        <time>2020-10-27T09:26:53+01:00</time>
      </trkpt>
      <trkpt lat="45.05599" lon="6.27259">
        <ele>1915</ele>
        <time>2020-10-27T09:26:58+01:00</time>
      </trkpt>
      <trkpt lat="45.05656" lon="6.2733">
        <ele>1899</ele>
        <time>2020-10-27T09:27:03+01:00</time>
      </trkpt>
      <trkpt lat="45.05737" lon="6.27496">
        <ele>1864</ele>
        <time>2020-10-27T09:27:08+01:00</time>
      </trkpt>
      <trkpt lat="45.05778" lon="6.27631">
        <ele>1832</ele>
        <time>2020-10-27T09:27:13+01:00</time>
      </trkpt>
      <trkpt lat="45.05711" lon="6.27708">
        <ele>1806</ele>
        <time>2020-10-27T09:27:18+01:00</time>
      </trkpt>
      <trkpt lat="45.05728" lon="6.27736">
        <ele>1799</ele>
        <time>2020-10-27T09:27:23+01:00</time>
      </trkpt>
      <trkpt lat="45.05685" lon="6.27826">
        <ele>1771</ele>
        <time>2020-10-27T09:27:28+01:00</time>
      </trkpt>
      <trkpt lat="45.05694" lon="6.27837">
        <ele>1768</ele>
        <time>2020-10-27T09:27:33+01:00</time>
      </trkpt>
      <trkpt lat="45.05687" lon="6.27907">
        <ele>1754</ele>
        <time>2020-10-27T09:27:38+01:00</time>
      </trkpt>
      <trkpt lat="45.05711" lon="6.2795">
        <ele>1746</ele>
        <time>2020-10-27T09:27:43+01:00</time>
      </trkpt>
      <trkpt lat="45.057" lon="6.28008">
        <ele>1736</ele>
        <time>2020-10-27T09:27:48+01:00</time>
      </trkpt>
      <trkpt lat="45.05662" lon="6.28079">
        <ele>1734</ele>
        <time>2020-10-27T09:27:53+01:00</time>
      </trkpt>
      <trkpt lat="45.0562" lon="6.28174">
        <ele>1747</ele>
        <time>2020-10-27T09:27:58+01:00</time>
      </trkpt>
      <trkpt lat="45.05558" lon="6.28277">
        <ele>1752</ele>
        <time>2020-10-27T09:28:03+01:00</time>
      </trkpt>
      <trkpt lat="45.05485" lon="6.2838">
        <ele>1768</ele>
        <time>2020-10-27T09:28:08+01:00</time>
      </trkpt>
      <trkpt lat="45.05446" lon="6.28425">
        <ele>1777</ele>
        <time>2020-10-27T09:28:13+01:00</time>
      </trkpt>
      <trkpt lat="45.05415" lon="6.2847">
        <ele>1786</ele>
        <time>2020-10-27T09:28:18+01:00</time>
      </trkpt>
      <trkpt lat="45.05391" lon="6.28648">
        <ele>1797</ele>
        <time>2020-10-27T09:28:23+01:00</time>
      </trkpt>
      <trkpt lat="45.05294" lon="6.28749">
        <ele>1793</ele>
        <time>2020-10-27T09:28:28+01:00</time>
      </trkpt>
      <trkpt lat="45.05262" lon="6.28819">
        <ele>1803</ele>
        <time>2020-10-27T09:28:33+01:00</time>
      </trkpt>
      <trkpt lat="45.05199" lon="6.28869">
        <ele>1805</ele>
        <time>2020-10-27T09:28:38+01:00</time>
      </trkpt>
      <trkpt lat="45.05108" lon="6.28897">
        <ele>1810</ele>
        <time>2020-10-27T09:28:43+01:00</time>
      </trkpt>
      <trkpt lat="45.05067" lon="6.28903">
        <ele>1811</ele>
        <time>2020-10-27T09:28:48+01:00</time>
      </trkpt>
      <trkpt lat="45.04954" lon="6.28942">
        <ele>1825</ele>
        <time>2020-10-27T09:28:53+01:00</time>
      </trkpt>
      <trkpt lat="45.04876" lon="6.28993">
        <ele>1828</ele>
        <time>2020-10-27T09:28:58+01:00</time>
      </trkpt>
      <trkpt lat="45.04853" lon="6.29049">
        <ele>1826</ele>
        <time>2020-10-27T09:29:03+01:00</time>
      </trkpt>
      <trkpt lat="45.04841" lon="6.29137">
        <ele>1824</ele>
        <time>2020-10-27T09:29:08+01:00</time>
      </trkpt>
      <trkpt lat="45.04868" lon="6.29231">
        <ele>1810</ele>
        <time>2020-10-27T09:29:13+01:00</time>
      </trkpt>
      <trkpt lat="45.04912" lon="6.29347">
        <ele>1792</ele>
        <time>2020-10-27T09:29:18+01:00</time>
      </trkpt>
      <trkpt lat="45.04938" lon="6.29431">
        <ele>1784</ele>
        <time>2020-10-27T09:29:23+01:00</time>
      </trkpt>
      <trkpt lat="45.04965" lon="6.29517">
        <ele>1773</ele>
        <time>2020-10-27T09:29:28+01:00</time>
      </trkpt>
      <trkpt lat="45.04945" lon="6.29547">
        <ele>1766</ele>
        <time>2020-10-27T09:29:33+01:00</time>
      </trkpt>
      <trkpt lat="45.04895" lon="6.29519">
        <ele>1753</ele>
        <time>2020-10-27T09:29:38+01:00</time>
      </trkpt>
      <trkpt lat="45.04841" lon="6.29547">
        <ele>1730</ele>
        <time>2020-10-27T09:29:43+01:00</time>
      </trkpt>
      <trkpt lat="45.04827" lon="6.29673">
        <ele>1705</ele>
        <time>2020-10-27T09:29:48+01:00</time>
      </trkpt>
      <trkpt lat="45.04832" lon="6.29867">
        <ele>1673</ele>
        <time>2020-10-27T09:29:53+01:00</time>
      </trkpt>
      <trkpt lat="45.04863" lon="6.30045">
        <ele>1642</ele>
        <time>2020-10-27T09:29:58+01:00</time>
      </trkpt>
      <trkpt lat="45.0485" lon="6.30128">
        <ele>1618</ele>
        <time>2020-10-27T09:30:03+01:00</time>
      </trkpt>
      <trkpt lat="45.04815" lon="6.30178">
        <ele>1607</ele>
        <time>2020-10-27T09:30:08+01:00</time>
      </trkpt>
      <trkpt lat="45.0476" lon="6.30176">
        <ele>1601</ele>
        <time>2020-10-27T09:30:13+01:00</time>
      </trkpt>
      <trkpt lat="45.04726" lon="6.30216">
        <ele>1587</ele>
        <time>2020-10-27T09:30:18+01:00</time>
      </trkpt>
      <trkpt lat="45.04694" lon="6.30251">
        <ele>1574</ele>
        <time>2020-10-27T09:30:23+01:00</time>
      </trkpt>
      <trkpt lat="45.04683" lon="6.30311">
        <ele>1561</ele>
        <time>2020-10-27T09:30:28+01:00</time>
      </trkpt>
      <trkpt lat="45.04691" lon="6.3036">
        <ele>1544</ele>
        <time>2020-10-27T09:30:33+01:00</time>
      </trkpt>
      <trkpt lat="45.04733" lon="6.30373">
        <ele>1540</ele>
        <time>2020-10-27T09:30:38+01:00</time>
      </trkpt>
      <trkpt lat="45.04762" lon="6.30362">
        <ele>1546</ele>
        <time>2020-10-27T09:30:43+01:00</time>
      </trkpt>
      <trkpt lat="45.04736" lon="6.30412">
        <ele>1538</ele>
        <time>2020-10-27T09:30:48+01:00</time>
      </trkpt>
      <trkpt lat="45.047" lon="6.30502">
        <ele>1523</ele>
        <time>2020-10-27T09:30:53+01:00</time>
      </trkpt>
      <trkpt lat="45.04679" lon="6.30538">
        <ele>1520</ele>
        <time>2020-10-27T09:30:58+01:00</time>
      </trkpt>
      <trkpt lat="45.04648" lon="6.30527">
        <ele>1519</ele>
        <time>2020-10-27T09:31:03+01:00</time>
      </trkpt>
      <trkpt lat="45.04607" lon="6.30577">
        <ele>1515</ele>
        <time>2020-10-27T09:31:08+01:00</time>
      </trkpt>
      <trkpt lat="45.04575" lon="6.30558">
        <ele>1506</ele>
        <time>2020-10-27T09:31:13+01:00</time>
      </trkpt>
      <trkpt lat="45.04556" lon="6.30575">
        <ele>1496</ele>
        <time>2020-10-27T09:31:18+01:00</time>
      </trkpt>
    </trkseg>
  </trk>
</gpx>